Decoded Metar for KHWV (SHIRLEY in NY, USA) (IATA:HWV) | Meteo·Mobile Aviation Weather
aviador You're here:

KHWV Decoded Metar

SHIRLEY in NY, USA
Report Time2018-08-21 11:56:00
UTC Time2018-08-21 12:10:57
Flight Rules vfr VFR
WindVRB at 04 kt
Visibility9999 m
Phenomena:N/A
Clouds:N/A
CeilingNone
Temp18°C (ISA +3)
Dew Point18°C (100% RH)
QNH1020 hPa
Density Alt476 ft
Elevation69 ft
Report Wrong Elevation
Raw Report
KHWV 211156Z AUTO VRB04KT 10SM CLR 18/18 A3013 RMK AO2 SLP202
T01830178 10183 20161 53003 $=

Extra information for KHWV:More info

Metar Taf Metar & Taf Last 4 Metars F.Rules Stats Wind Profile Meteogram Temp Stats Airport Information Weather charts Add Link Nearby VenuesMetar ALERT Operation Metar Decoded Social comments

AIRNAV info for KHWV